地図

経路データ

SID SEASON NUMBER BASIN SUBBASIN NAME ISO_TIME NATURE LAT LON WMO_WIND WMO_PRES WMO_AGENCY TRACK_TYPE DIST2LAND LANDFALL IFLAG USA_AGENCY USA_ATCF_ID USA_LAT USA_LON USA_RECORD USA_STATUS USA_WIND USA_PRES USA_SSHS USA_R34_NE USA_R34_SE USA_R34_SW USA_R34_NW USA_R50_NE USA_R50_SE USA_R50_SW USA_R50_NW USA_R64_NE USA_R64_SE USA_R64_SW USA_R64_NW USA_POCI USA_ROCI USA_RMW USA_EYE TOKYO_LAT TOKYO_LON TOKYO_GRADE TOKYO_WIND TOKYO_PRES TOKYO_R50_DIR TOKYO_R50_LONG TOKYO_R50_SHORT TOKYO_R30_DIR TOKYO_R30_LONG TOKYO_R30_SHORT TOKYO_LAND CMA_LAT CMA_LON CMA_CAT CMA_WIND CMA_PRES HKO_LAT HKO_LON HKO_CAT HKO_WIND HKO_PRES NEWDELHI_LAT NEWDELHI_LON NEWDELHI_GRADE NEWDELHI_WIND NEWDELHI_PRES NEWDELHI_CI NEWDELHI_DP NEWDELHI_POCI REUNION_LAT REUNION_LON REUNION_TYPE REUNION_WIND REUNION_PRES REUNION_TNUM REUNION_CI REUNION_RMW REUNION_R34_NE REUNION_R34_SE REUNION_R34_SW REUNION_R34_NW REUNION_R50_NE REUNION_R50_SE REUNION_R50_SW REUNION_R50_NW REUNION_R64_NE REUNION_R64_SE REUNION_R64_SW REUNION_R64_NW BOM_LAT BOM_LON BOM_TYPE BOM_WIND BOM_PRES BOM_TNUM BOM_CI BOM_RMW BOM_R34_NE BOM_R34_SE BOM_R34_SW BOM_R34_NW BOM_R50_NE BOM_R50_SE BOM_R50_SW BOM_R50_NW BOM_R64_NE BOM_R64_SE BOM_R64_SW BOM_R64_NW BOM_ROCI BOM_POCI BOM_EYE BOM_POS_METHOD BOM_PRES_METHOD NADI_LAT NADI_LON NADI_CAT NADI_WIND NADI_PRES WELLINGTON_LAT WELLINGTON_LON WELLINGTON_WIND WELLINGTON_PRES DS824_LAT DS824_LON DS824_STAGE DS824_WIND DS824_PRES TD9636_LAT TD9636_LON TD9636_STAGE TD9636_WIND TD9636_PRES TD9635_LAT TD9635_LON TD9635_WIND TD9635_PRES TD9635_ROCI NEUMANN_LAT NEUMANN_LON NEUMANN_CLASS NEUMANN_WIND NEUMANN_PRES MLC_LAT MLC_LON MLC_CLASS MLC_WIND MLC_PRES USA_GUST BOM_GUST BOM_GUST_PER REUNION_GUST REUNION_GUST_PER USA_SEAHGT USA_SEARAD_NE USA_SEARAD_SE USA_SEARAD_SW USA_SEARAD_NW STORM_SPEED STORM_DIR
1893046S15063 1893 8 SI MM NOT_NAMED 1893-02-14 18:00:00 NR -14.8000 62.7000 main 795 766 __________O___ -1 -14.8000 62.7000 7 5 255
1893046S15063 1893 8 SI MM NOT_NAMED 1893-02-14 21:00:00 NR -14.8704 62.4329 main 766 752 __________P___ -1 -14.8704 62.4329 7 5 255
1893046S15063 1893 8 SI MM NOT_NAMED 1893-02-15 00:00:00 NR -14.9425 62.1525 main 752 723 __________P___ -1 -14.9425 62.1525 7 6 255
1893046S15063 1893 8 SI MM NOT_NAMED 1893-02-15 03:00:00 NR -15.0184 61.8460 main 717 689 __________P___ -1 -15.0184 61.8460 7 7 256
1893046S15063 1893 8 SI MM NOT_NAMED 1893-02-15 06:00:00 NR -15.1000 61.5000 main 689 656 __________O___ -1 -15.1000 61.5000 7 7 257
1893046S15063 1893 8 SI MM NOT_NAMED 1893-02-15 09:00:00 NR -15.1889 61.1068 main 656 624 __________P___ -1 -15.1889 61.1068 7 8 257
1893046S15063 1893 8 SI MM NOT_NAMED 1893-02-15 12:00:00 NR -15.2851 60.6799 main 624 593 __________P___ -1 -15.2851 60.6799 7 9 257
1893046S15063 1893 8 SI MM NOT_NAMED 1893-02-15 15:00:00 NR -15.3888 60.2380 main 588 560 __________P___ -1 -15.3888 60.2380 7 9 256
1893046S15063 1893 8 SI MM NOT_NAMED 1893-02-15 18:00:00 NR -15.5000 59.8000 main 560 534 __________O___ -1 -15.5000 59.8000 7 9 255
1893046S15063 1893 8 SI MM NOT_NAMED 1893-02-15 21:00:00 NR -15.6137 59.3684 main 534 511 __________P___ -1 -15.6137 59.3684 7 9 254
1893046S15063 1893 8 SI MM NOT_NAMED 1893-02-16 00:00:00 NR -15.7350 58.9475 main 508 479 __________P___ -1 -15.7350 58.9475 7 8 252
1893046S15063 1893 8 SI MM NOT_NAMED 1893-02-16 03:00:00 NR -15.8638 58.5528 main 479 461 __________P___ -1 -15.8638 58.5528 7 8 250
1893046S15063 1893 8 SI MM NOT_NAMED 1893-02-16 06:00:00 NR -16.0000 58.2000 main 461 448 __________O___ -1 -16.0000 58.2000 7 7 247
1893046S15063 1893 8 SI MM NOT_NAMED 1893-02-16 09:00:00 NR -16.1303 57.8904 main 448 425 __________P___ -1 -16.1303 57.8904 7 6 244
1893046S15063 1893 8 SI MM NOT_NAMED 1893-02-16 12:00:00 NR -16.2697 57.6248 main 425 413 __________P___ -1 -16.2697 57.6248 7 6 238
1893046S15063 1893 8 SI MM NOT_NAMED 1893-02-16 15:00:00 NR -16.4242 57.3967 main 414 392 __________P___ -1 -16.4242 57.3967 7 5 231
1893046S15063 1893 8 SI MM NOT_NAMED 1893-02-16 18:00:00 NR -16.6000 57.2000 main 392 372 __________O___ -1 -16.6000 57.2000 7 5 227
1893046S15063 1893 8 SI MM NOT_NAMED 1893-02-16 21:00:00 NR -16.7993 56.9808 main 372 354 __________P___ -1 -16.7993 56.9808 7 6 223
1893046S15063 1893 8 SI MM NOT_NAMED 1893-02-17 00:00:00 NR -17.0199 56.7954 main 354 335 __________P___ -1 -17.0199 56.7954 7 6 214
1893046S15063 1893 8 SI MM NOT_NAMED 1893-02-17 03:00:00 NR -17.2556 56.6622 main 324 305 __________P___ -1 -17.2556 56.6622 7 5 201
1893046S15063 1893 8 SI MM NOT_NAMED 1893-02-17 06:00:00 NR -17.5000 56.6000 main 305 284 __________O___ -1 -17.5000 56.6000 7 5 186
1893046S15063 1893 8 SI MM NOT_NAMED 1893-02-17 09:00:00 NR -17.7630 56.6035 main 274 249 __________P___ -1 -17.7630 56.6035 7 5 172
1893046S15063 1893 8 SI MM NOT_NAMED 1893-02-17 12:00:00 NR -18.0298 56.6796 main 249 214 __________P___ -1 -18.0298 56.6796 7 6 159
1893046S15063 1893 8 SI MM NOT_NAMED 1893-02-17 15:00:00 NR -18.2817 56.8160 main 214 186 __________P___ -1 -18.2817 56.8160 7 6 147
1893046S15063 1893 8 SI MM NOT_NAMED 1893-02-17 18:00:00 NR -18.5000 57.0000 main 186 159 __________O___ -1 -18.5000 57.0000 7 5 135
1893046S15063 1893 8 SI MM NOT_NAMED 1893-02-17 21:00:00 NR -18.6652 57.2190 main 159 145 __________P___ -1 -18.6652 57.2190 7 5 123
1893046S15063 1893 8 SI MM NOT_NAMED 1893-02-18 00:00:00 NR -18.7953 57.4775 main 145 134 __________P___ -1 -18.7953 57.4775 7 6 115
1893046S15063 1893 8 SI MM NOT_NAMED 1893-02-18 03:00:00 NR -18.9027 57.7472 main 134 124 __________P___ -1 -18.9027 57.7472 7 5 112
1893046S15063 1893 8 SI MM NOT_NAMED 1893-02-18 06:00:00 NR -19.0000 58.0000 main 126 119 __________O___ -1 -19.0000 58.0000 7 5 116
1893046S15063 1893 8 SI MM NOT_NAMED 1893-02-18 09:00:00 NR -19.1111 58.2008 main 123 118 __________P___ -1 -19.1111 58.2008 7 4 121
1893046S15063 1893 8 SI MM NOT_NAMED 1893-02-18 12:00:00 NR -19.2148 58.3801 main 124 115 __________P___ -1 -19.2148 58.3802 7 4 122
1893046S15063 1893 8 SI MM NOT_NAMED 1893-02-18 15:00:00 NR -19.3111 58.5445 main 122 122 __________P___ -1 -19.3111 58.5445 7 4 122
1893046S15063 1893 8 SI MM NOT_NAMED 1893-02-18 18:00:00 NR -19.4000 58.7000 main 130 130 __________O___ -1 -19.4000 58.7000 7 3 121
1893046S15063 1893 8 SI MM NOT_NAMED 1893-02-18 21:00:00 NR -19.4697 58.8291 main 133 133 __________P___ -1 -19.4697 58.8291 7 3 119
1893046S15063 1893 8 SI MM NOT_NAMED 1893-02-19 00:00:00 NR -19.5345 58.9555 main 151 147 __________P___ -1 -19.5345 58.9555 7 3 118
1893046S15063 1893 8 SI MM NOT_NAMED 1893-02-19 03:00:00 NR -19.6071 59.1042 main 156 156 __________P___ -1 -19.6071 59.1042 7 4 117
1893046S15063 1893 8 SI MM NOT_NAMED 1893-02-19 06:00:00 NR -19.7000 59.3000 main 170 170 __________O___ -1 -19.7000 59.3000 7 5 117
1893046S15063 1893 8 SI MM NOT_NAMED 1893-02-19 09:00:00 NR -19.8368 59.5825 main 196 193 __________P___ -1 -19.8368 59.5825 7 6 117
1893046S15063 1893 8 SI MM NOT_NAMED 1893-02-19 12:00:00 NR -19.9929 59.9120 main 221 221 __________P___ -1 -19.9929 59.9120 7 7 116
1893046S15063 1893 8 SI MM NOT_NAMED 1893-02-19 15:00:00 NR -20.1524 60.2606 main 261 261 __________P___ -1 -20.1524 60.2606 7 7 115
1893046S15063 1893 8 SI MM NOT_NAMED 1893-02-19 18:00:00 NR -20.3000 60.6000 main 291 291 __________O___ -1 -20.3000 60.6000 7 7 114
1893046S15063 1893 8 SI MM NOT_NAMED 1893-02-19 21:00:00 NR -20.4239 60.9080 main 323 323 __________P___ -1 -20.4239 60.9080 7 6 112
1893046S15063 1893 8 SI MM NOT_NAMED 1893-02-20 00:00:00 NR -20.5274 61.1877 main 355 355 __________P___ -1 -20.5274 61.1877 7 5 111
1893046S15063 1893 8 SI MM NOT_NAMED 1893-02-20 03:00:00 NR -20.6172 61.4485 main 376 376 __________P___ -1 -20.6172 61.4485 7 5 110
1893046S15063 1893 8 SI MM NOT_NAMED 1893-02-20 06:00:00 NR -20.7000 61.7000 main 408 __________O___ -1 -20.7000 61.7000 7 5 110

IBTrACS Databaseについて

本データベースは、米国NOAAが公開する1842年以降の世界の熱帯低気圧のベストトラックデータアーカイブInternational Best Track Archive for Climate Stewardship (IBTrACS)を、ウェブで閲覧しやすい形式に変換したものです。

最終更新日:2021-12-03